Terminal Aerodrome Forecast
Issued by NWS Atlanta, GA

Home | Current Version | Previous Version | Text Only | Print | Product List | Glossary On
Versions: 1 2 3 4 5 6 7 8 9 10 11 12 13 14 15
000
FTUS42 KFFC 231727
TAFCSG
TAF
KCSG 231727Z 2318/2418 22007KT 5SM SHRA SCT015 BKN035
      TEMPO 2318/2322 3SM SHRA BKN015
     FM232200 28007KT P6SM VCSH BKN025
     FM240000 25007KT P6SM BKN030
     FM240900 30005KT 6SM -DZ BKN009
     FM241500 30007KT P6SM BKN015=

USA.gov is the U.S. government's official web portal to all federal, state and local government web resources and services.